Terminal Aerodrome Forecast
Issued by NWS

Current Version | Previous Version | Text Only | Print | Product List | Glossary On
Versions: 1 2 3 4 5 6 7 8 9 10 11 12 13 14
000
FTUS46 KLOX 240537
TAFVNY
TAF
KVNY 240537Z 2406/2506 VRB05KT P6SM BKN110
     FM241100 VRB05KT 5SM FU SCT040 BKN110
     FM241800 15007KT P6SM SCT110
     FM250300 VRB05KT P6SM SCT110=

USA.gov is the U.S. government's official web portal to all federal, state and local government web resources and services.